createdAt,value
2022-12-18T00:00:14.157Z,102.10
2022-12-18T00:02:42.705Z,113.20
2022-12-18T00:05:11.179Z,105.90
2022-12-18T00:07:39.987Z,109.35
2022-12-18T00:10:09.969Z,109.82
2022-12-18T00:12:40.096Z,102.88
2022-12-18T00:15:09.631Z,99.85
2022-12-18T00:17:37.995Z,103.05
2022-12-18T00:20:07.756Z,101.28
2022-12-18T00:22:35.959Z,104.13
2022-12-18T00:25:05.105Z,108.65
2022-12-18T00:27:33.543Z,108.43
2022-12-18T00:30:04.061Z,114.03
2022-12-18T00:32:32.696Z,97.88
2022-12-18T00:35:01.033Z,101.90
2022-12-18T00:37:29.352Z,104.57
2022-12-18T00:39:57.969Z,101.43
2022-12-18T00:42:44.004Z,107.65
2022-12-18T00:45:14.227Z,108.53
2022-12-18T00:47:42.732Z,106.05
2022-12-18T00:50:12.885Z,99.53
2022-12-18T00:52:41.787Z,101.70
2022-12-18T00:55:10.961Z,94.22
2022-12-18T00:57:39.636Z,97.20
2022-12-18T01:00:12.815Z,93.55
2022-12-18T01:02:43.996Z,93.70
2022-12-18T01:05:14.800Z,90.78
2022-12-18T01:07:43.509Z,92.15
2022-12-18T01:10:15.397Z,92.95
2022-12-18T01:12:43.706Z,87.38
2022-12-18T01:15:14.715Z,88.75
2022-12-18T01:17:45.075Z,82.18
2022-12-18T01:20:16.042Z,87.88
2022-12-18T01:22:44.280Z,92.90
2022-12-18T01:25:12.580Z,86.57
2022-12-18T01:27:41.302Z,79.90
2022-12-18T01:30:11.130Z,100.07
2022-12-18T01:32:40.474Z,87.18
2022-12-18T01:35:11.080Z,85.53
2022-12-18T01:37:39.857Z,87.07
2022-12-18T01:40:10.813Z,84.55
2022-12-18T01:42:39.202Z,94.13
2022-12-18T01:45:26.040Z,91.35
2022-12-18T01:47:57.635Z,78.20
2022-12-18T01:50:33.721Z,80.30
2022-12-18T01:53:08.450Z,88.05
2022-12-18T01:55:42.594Z,82.30
2022-12-18T01:58:12.290Z,78.63
2022-12-18T02:00:41.201Z,84.78
2022-12-18T02:03:09.695Z,86.25
2022-12-18T02:05:47.069Z,96.75
2022-12-18T02:08:22.615Z,82.47
2022-12-18T02:11:01.694Z,91.22
2022-12-18T02:13:40.492Z,88.88
2022-12-18T02:16:21.636Z,84.68
2022-12-18T02:18:54.073Z,90.90
2022-12-18T02:21:36.473Z,86.45
2022-12-18T02:24:20.964Z,102.88
2022-12-18T02:26:53.150Z,96.78
2022-12-18T02:29:28.481Z,91.63
2022-12-18T02:32:00.515Z,88.75
2022-12-18T02:34:31.603Z,97.00
2022-12-18T02:37:04.174Z,93.68
2022-12-18T02:39:34.785Z,91.88
2022-12-18T02:42:08.984Z,86.47
2022-12-18T02:44:41.473Z,80.30
2022-12-18T02:47:14.570Z,89.75
2022-12-18T02:49:54.039Z,87.50
2022-12-18T02:52:32.225Z,96.30
2022-12-18T02:55:14.448Z,78.60
2022-12-18T02:57:51.334Z,82.80
2022-12-18T03:00:24.412Z,80.15
2022-12-18T03:03:02.887Z,87.13
2022-12-18T03:05:37.927Z,80.15
2022-12-18T03:08:11.269Z,84.78
2022-12-18T03:10:46.814Z,89.13
2022-12-18T03:13:22.781Z,71.97
2022-12-18T03:15:55.138Z,74.65
2022-12-18T03:18:30.006Z,78.05
2022-12-18T03:21:03.058Z,80.35
2022-12-18T03:23:38.138Z,79.97
2022-12-18T03:26:12.819Z,82.40
2022-12-18T03:28:48.622Z,73.70
2022-12-18T03:31:17.783Z,71.15
2022-12-18T03:33:50.689Z,74.25
2022-12-18T03:36:19.367Z,75.13
2022-12-18T03:38:47.891Z,65.40
2022-12-18T03:41:23.722Z,76.95
2022-12-18T03:44:01.114Z,68.97
2022-12-18T03:46:35.830Z,65.25
2022-12-18T03:49:11.676Z,63.58
2022-12-18T03:51:46.318Z,69.10
2022-12-18T03:54:15.580Z,68.95
2022-12-18T03:56:48.332Z,65.85
2022-12-18T03:59:19.440Z,60.88
2022-12-18T04:01:51.688Z,58.58
2022-12-18T04:04:21.093Z,64.20
2022-12-18T04:06:51.843Z,65.97
2022-12-18T04:09:22.340Z,57.25
2022-12-18T04:11:50.985Z,61.65
2022-12-18T04:14:21.055Z,62.97
2022-12-18T04:16:49.281Z,64.30
2022-12-18T04:19:17.700Z,57.53
2022-12-18T04:21:46.026Z,62.63
2022-12-18T04:24:14.359Z,69.25
2022-12-18T04:26:42.568Z,58.85
2022-12-18T04:29:11.105Z,59.85
2022-12-18T04:31:41.033Z,56.42
2022-12-18T04:34:09.788Z,52.05
2022-12-18T04:36:38.111Z,58.47
2022-12-18T04:39:06.421Z,62.33
2022-12-18T04:41:34.856Z,56.38
2022-12-18T04:44:03.525Z,55.67
2022-12-18T04:46:31.955Z,48.50
2022-12-18T04:49:02.055Z,54.47
2022-12-18T04:51:30.299Z,57.55
2022-12-18T04:53:58.982Z,55.25
2022-12-18T04:56:27.274Z,56.67
2022-12-18T04:58:55.575Z,60.30
2022-12-18T05:01:26.094Z,53.30
2022-12-18T05:03:56.661Z,50.72
2022-12-18T05:06:26.671Z,48.20
2022-12-18T05:08:55.386Z,47.70
2022-12-18T05:11:24.148Z,46.67
2022-12-18T05:13:52.455Z,49.17
2022-12-18T05:16:21.002Z,52.15
2022-12-18T05:18:49.249Z,51.05
2022-12-18T05:21:17.545Z,50.28
2022-12-18T05:23:47.586Z,44.80
2022-12-18T05:26:19.247Z,44.70
2022-12-18T05:28:48.128Z,51.60
2022-12-18T05:31:17.186Z,38.50
2022-12-18T05:33:45.489Z,48.53
2022-12-18T05:36:13.964Z,41.60
2022-12-18T05:38:42.659Z,45.75
2022-12-18T05:41:12.666Z,42.10
2022-12-18T05:43:43.370Z,41.10
2022-12-18T05:46:15.929Z,40.47
2022-12-18T05:48:44.593Z,39.05
2022-12-18T05:51:15.951Z,42.97
2022-12-18T05:53:45.139Z,41.35
2022-12-18T05:56:18.292Z,41.53
2022-12-18T05:58:47.683Z,41.15
2022-12-18T06:01:20.570Z,36.00
2022-12-18T06:03:49.035Z,37.55
2022-12-18T06:06:19.933Z,39.08
2022-12-18T06:08:48.672Z,35.47
2022-12-18T06:11:20.875Z,34.58
2022-12-18T06:13:57.677Z,42.90
2022-12-18T06:16:27.244Z,37.40
2022-12-18T06:18:55.871Z,37.88
2022-12-18T06:21:24.093Z,37.53
2022-12-18T06:23:52.553Z,38.20
2022-12-18T06:26:27.819Z,35.78
2022-12-18T06:28:56.965Z,39.97
2022-12-18T06:31:26.242Z,38.80
2022-12-18T06:33:55.327Z,35.00
2022-12-18T06:36:24.074Z,32.15
2022-12-18T06:38:52.576Z,35.63
2022-12-18T06:41:24.340Z,38.30
2022-12-18T06:43:58.124Z,39.47
2022-12-18T06:46:28.277Z,40.97
2022-12-18T06:48:56.726Z,35.38
2022-12-18T06:51:27.044Z,31.70
2022-12-18T06:53:55.437Z,38.10
2022-12-18T06:56:25.720Z,35.88
2022-12-18T06:58:54.114Z,41.88
2022-12-18T07:01:22.849Z,34.67
2022-12-18T07:03:56.160Z,33.05
2022-12-18T07:06:26.769Z,35.53
2022-12-18T07:08:56.668Z,36.08
2022-12-18T07:11:27.122Z,34.45
2022-12-18T07:13:55.778Z,40.05
2022-12-18T07:16:26.033Z,36.33
2022-12-18T07:18:54.850Z,36.78
2022-12-18T07:21:24.057Z,30.90
2022-12-18T07:23:52.709Z,31.25
2022-12-18T07:26:23.696Z,38.78
2022-12-18T07:28:58.673Z,35.20
2022-12-18T07:31:28.159Z,34.38
2022-12-18T07:33:57.610Z,38.97
2022-12-18T07:36:26.167Z,34.70
2022-12-18T07:38:54.566Z,42.80
2022-12-18T07:41:23.805Z,34.83
2022-12-18T07:43:53.722Z,34.38
2022-12-18T07:46:22.097Z,32.38
2022-12-18T07:48:50.674Z,34.83
2022-12-18T07:51:20.059Z,35.00
2022-12-18T07:53:50.314Z,28.90
2022-12-18T07:56:29.923Z,31.83
2022-12-18T07:59:01.446Z,33.25
2022-12-18T08:01:30.537Z,32.72
2022-12-18T08:04:00.375Z,34.20
2022-12-18T08:06:28.737Z,38.40
2022-12-18T08:08:58.036Z,33.50
2022-12-18T08:11:28.654Z,36.10
2022-12-18T08:13:57.608Z,34.10
2022-12-18T08:16:27.845Z,29.98
2022-12-18T08:18:57.030Z,35.25
2022-12-18T08:21:28.071Z,35.40
2022-12-18T08:24:00.283Z,32.47
2022-12-18T08:26:32.086Z,36.03
2022-12-18T08:29:01.966Z,32.10
2022-12-18T08:31:34.096Z,36.72
2022-12-18T08:34:02.576Z,35.95
2022-12-18T08:36:30.918Z,34.58
2022-12-18T08:38:59.604Z,31.13
2022-12-18T08:41:29.079Z,37.45
2022-12-18T08:44:15.174Z,33.90
2022-12-18T08:46:46.026Z,35.67
2022-12-18T08:49:14.744Z,36.95
2022-12-18T08:51:43.238Z,33.35
2022-12-18T08:54:14.834Z,33.20
2022-12-18T08:56:43.214Z,28.67
2022-12-18T08:59:18.810Z,30.80
2022-12-18T09:01:49.988Z,28.83
2022-12-18T09:04:18.965Z,43.28
2022-12-18T09:06:47.780Z,30.05
2022-12-18T09:09:16.692Z,38.40
2022-12-18T09:11:45.566Z,34.70
2022-12-18T09:14:14.037Z,36.22
2022-12-18T09:16:42.442Z,29.98
2022-12-18T09:19:12.873Z,32.38
2022-12-18T09:21:46.276Z,32.15
2022-12-18T09:24:17.559Z,38.45
2022-12-18T09:26:47.208Z,37.65
2022-12-18T09:29:19.021Z,32.50
2022-12-18T09:31:47.775Z,34.05
2022-12-18T09:34:17.862Z,31.92
2022-12-18T09:36:46.238Z,35.40
2022-12-18T09:39:15.995Z,35.40
2022-12-18T09:41:50.979Z,33.45
2022-12-18T09:44:27.778Z,33.05
2022-12-18T09:47:17.176Z,31.83
2022-12-18T09:49:49.860Z,32.13
2022-12-18T09:52:27.833Z,30.85
2022-12-18T09:55:02.687Z,32.17
2022-12-18T09:57:34.801Z,30.15
2022-12-18T10:00:11.681Z,31.85
2022-12-18T10:02:40.351Z,35.22
2022-12-18T10:05:15.433Z,32.35
2022-12-18T10:08:04.553Z,36.60
2022-12-18T10:10:41.012Z,36.08
2022-12-18T10:13:21.572Z,37.00
2022-12-18T10:16:07.011Z,35.30
2022-12-18T10:18:56.599Z,32.95
2022-12-18T10:21:34.841Z,33.75
2022-12-18T10:24:19.452Z,30.77
2022-12-18T10:26:49.192Z,37.38
2022-12-18T10:29:19.123Z,29.63
2022-12-18T10:31:48.594Z,32.38
2022-12-18T10:34:17.045Z,37.83
2022-12-18T10:36:47.039Z,32.10
2022-12-18T10:39:21.185Z,32.80
2022-12-18T10:41:49.566Z,28.25
2022-12-18T10:44:21.780Z,27.17
2022-12-18T10:46:53.737Z,31.73
2022-12-18T10:49:26.235Z,32.47
2022-12-18T10:52:10.207Z,31.58
2022-12-18T10:54:40.512Z,30.13
2022-12-18T10:57:32.565Z,31.60
2022-12-18T11:00:25.612Z,31.70
2022-12-18T11:02:56.771Z,29.73
2022-12-18T11:05:31.300Z,31.10
2022-12-18T11:08:03.240Z,34.65
2022-12-18T11:10:35.597Z,37.78
2022-12-18T11:13:22.714Z,35.38
2022-12-18T11:15:51.722Z,31.35
2022-12-18T11:18:25.474Z,29.80
2022-12-18T11:20:58.696Z,27.70
2022-12-18T11:23:29.787Z,31.10
2022-12-18T11:26:01.336Z,31.40
2022-12-18T11:28:43.438Z,29.27
2022-12-18T11:31:26.421Z,30.35
2022-12-18T11:34:28.058Z,31.63
2022-12-18T11:36:51.297Z,30.00
2022-12-18T11:39:31.625Z,32.92
2022-12-18T11:42:13.996Z,33.13
2022-12-18T11:44:52.562Z,35.00
2022-12-18T11:47:32.350Z,34.53
2022-12-18T11:50:04.947Z,30.40
2022-12-18T11:52:39.839Z,35.22
2022-12-18T11:55:16.585Z,30.05
2022-12-18T11:57:55.484Z,31.77
2022-12-18T12:00:25.186Z,33.30
2022-12-18T12:03:28.314Z,34.83
2022-12-18T12:06:23.766Z,31.45
2022-12-18T12:09:07.329Z,33.50
2022-12-18T12:11:53.997Z,35.92
2022-12-18T12:14:41.038Z,31.92
2022-12-18T12:17:21.319Z,35.53
2022-12-18T12:20:00.257Z,31.60
2022-12-18T12:22:40.003Z,28.88
2022-12-18T12:25:24.152Z,33.33
2022-12-18T12:28:10.225Z,30.27
2022-12-18T12:30:46.608Z,36.05
2022-12-18T12:33:32.608Z,37.22
2022-12-18T12:36:10.481Z,33.10
2022-12-18T12:38:51.570Z,32.03
2022-12-18T12:41:42.458Z,32.40
2022-12-18T12:44:20.206Z,33.70
2022-12-18T12:46:52.034Z,31.40
2022-12-18T12:49:23.689Z,32.22
2022-12-18T12:52:01.709Z,38.50
2022-12-18T12:54:31.506Z,32.72
2022-12-18T12:57:07.190Z,38.30
2022-12-18T12:59:47.712Z,32.78
2022-12-18T13:02:25.643Z,31.48
2022-12-18T13:05:01.805Z,29.95
2022-12-18T13:07:38.504Z,29.92
2022-12-18T13:10:34.229Z,35.58
2022-12-18T13:13:05.658Z,34.75
2022-12-18T13:15:41.799Z,31.20
2022-12-18T13:18:19.563Z,33.53
2022-12-18T13:23:40.824Z,34.60
2022-12-18T13:26:35.389Z,32.22
2022-12-18T13:29:05.317Z,35.58
2022-12-18T13:32:24.281Z,36.97
2022-12-18T13:35:41.476Z,33.75
2022-12-18T13:38:24.801Z,35.05
2022-12-18T13:40:59.114Z,31.52
2022-12-18T13:43:44.898Z,33.33
2022-12-18T13:46:24.241Z,37.35
2022-12-18T13:49:00.999Z,38.78
2022-12-18T13:51:31.183Z,37.42
2022-12-18T13:54:02.958Z,36.03
2022-12-18T13:56:34.445Z,41.67
2022-12-18T13:59:19.921Z,34.30
2022-12-18T14:01:56.316Z,35.05
2022-12-18T14:04:30.133Z,35.78
2022-12-18T14:07:04.440Z,37.03
2022-12-18T14:09:38.049Z,35.78
2022-12-18T14:12:34.530Z,36.45
2022-12-18T14:15:03.614Z,34.80
2022-12-18T14:17:33.981Z,36.40
2022-12-18T14:20:05.987Z,36.13
2022-12-18T14:22:34.285Z,34.40
2022-12-18T14:25:20.812Z,36.90
2022-12-18T14:27:54.184Z,35.92
2022-12-18T14:30:29.901Z,37.42
2022-12-18T14:33:06.367Z,40.78
2022-12-18T14:35:38.760Z,35.92
2022-12-18T14:38:23.703Z,40.08
2022-12-18T14:41:01.720Z,36.30
2022-12-18T14:43:33.973Z,39.05
2022-12-18T14:46:04.252Z,40.05
2022-12-18T14:48:41.425Z,35.03
2022-12-18T14:51:20.645Z,41.20
2022-12-18T14:53:54.839Z,43.78
2022-12-18T14:56:26.838Z,39.97
2022-12-18T15:03:05.474Z,40.78
2022-12-18T15:05:34.562Z,38.30
2022-12-18T15:08:05.326Z,42.55
2022-12-18T15:10:35.434Z,38.75
2022-12-18T15:13:18.125Z,48.45
2022-12-18T15:15:55.450Z,50.03
2022-12-18T15:18:32.006Z,40.63
2022-12-18T15:21:09.613Z,47.35
2022-12-18T15:23:48.921Z,45.00
2022-12-18T15:26:19.598Z,43.08
2022-12-18T15:28:51.375Z,36.17
2022-12-18T15:31:31.821Z,36.80
2022-12-18T15:34:14.479Z,34.55
2022-12-18T15:36:45.651Z,35.15
2022-12-18T15:39:36.683Z,41.17
2022-12-18T15:42:32.040Z,31.30
2022-12-18T15:45:03.966Z,34.63
2022-12-18T15:48:40.528Z,32.17
2022-12-18T15:51:17.837Z,33.05
2022-12-18T15:53:47.057Z,32.20
2022-12-18T15:56:35.473Z,36.85
2022-12-18T15:59:06.711Z,31.90
2022-12-18T16:01:39.628Z,33.92
2022-12-18T16:04:13.018Z,34.45
2022-12-18T16:07:12.610Z,37.53
2022-12-18T16:09:30.539Z,36.00
2022-12-18T16:12:01.354Z,30.95
2022-12-18T16:14:32.010Z,32.03
2022-12-18T16:17:18.389Z,41.80
2022-12-18T16:19:46.876Z,36.83
2022-12-18T16:22:24.086Z,34.67
2022-12-18T16:24:54.602Z,41.15
2022-12-18T16:27:25.995Z,41.53
2022-12-18T16:29:54.534Z,39.80
2022-12-18T16:32:24.637Z,35.33
2022-12-18T16:34:53.407Z,35.80
2022-12-18T16:37:31.079Z,48.25
2022-12-18T16:40:04.571Z,44.25
2022-12-18T16:42:34.409Z,48.63
2022-12-18T16:45:02.649Z,40.53
2022-12-18T16:47:31.230Z,56.17
2022-12-18T16:49:59.783Z,42.20
2022-12-18T16:52:45.640Z,36.17
2022-12-18T16:55:13.896Z,40.30
2022-12-18T16:57:43.647Z,40.53
2022-12-18T17:00:14.460Z,38.45
2022-12-18T17:02:42.956Z,45.50
2022-12-18T17:05:11.541Z,42.42
2022-12-18T17:07:39.942Z,40.00
2022-12-18T17:10:09.109Z,34.78
2022-12-18T17:12:38.690Z,35.38
2022-12-18T17:15:11.555Z,36.78
2022-12-18T17:17:40.410Z,33.97
2022-12-18T17:20:10.801Z,33.67
2022-12-18T17:22:39.136Z,34.33
2022-12-18T17:25:08.666Z,34.53
2022-12-18T17:27:37.018Z,32.78
2022-12-18T17:30:09.845Z,33.70
2022-12-18T17:32:38.312Z,37.15
2022-12-18T17:35:07.687Z,35.63
2022-12-18T17:37:36.193Z,34.78
2022-12-18T17:40:05.466Z,33.70
2022-12-18T17:42:33.826Z,42.70
2022-12-18T17:45:02.097Z,38.17
2022-12-18T17:47:32.584Z,36.65
2022-12-18T17:50:01.611Z,34.15
2022-12-18T17:52:29.881Z,37.80
2022-12-18T17:54:58.175Z,39.65
2022-12-18T17:57:26.426Z,56.13
2022-12-18T17:59:54.667Z,40.05
2022-12-18T18:02:24.205Z,39.00
2022-12-18T18:04:54.492Z,39.22
2022-12-18T18:07:22.905Z,39.65
2022-12-18T18:09:51.536Z,37.28
2022-12-18T18:12:49.057Z,40.08
2022-12-18T18:15:17.693Z,49.42
2022-12-18T18:17:46.632Z,40.58
2022-12-18T18:20:22.373Z,40.72
2022-12-18T18:22:51.292Z,46.55
2022-12-18T18:25:19.644Z,45.22
2022-12-18T18:27:48.338Z,43.88
2022-12-18T18:30:19.712Z,43.70
2022-12-18T18:32:51.440Z,51.05
2022-12-18T18:35:52.309Z,48.58
2022-12-18T18:38:11.221Z,49.45
2022-12-18T18:40:39.701Z,41.58
2022-12-18T18:43:09.764Z,41.03
2022-12-18T18:45:38.200Z,41.90
2022-12-18T18:48:08.431Z,42.20
2022-12-18T18:50:38.405Z,48.83
2022-12-18T18:53:07.143Z,46.50
2022-12-18T18:55:35.740Z,45.38
2022-12-18T18:58:04.866Z,46.75
2022-12-18T19:00:34.932Z,54.05
2022-12-18T19:03:03.628Z,55.00
2022-12-18T19:05:33.465Z,59.92
2022-12-18T19:08:03.075Z,59.33
2022-12-18T19:10:31.478Z,48.22
2022-12-18T19:13:17.487Z,46.25
2022-12-18T19:15:46.050Z,41.53
2022-12-18T19:18:14.537Z,49.20
2022-12-18T19:20:43.038Z,45.72
2022-12-18T19:23:13.149Z,44.72
2022-12-18T19:25:42.571Z,47.13
2022-12-18T19:28:19.281Z,47.72
2022-12-18T19:30:58.611Z,47.03
2022-12-18T19:33:45.051Z,47.97
2022-12-18T19:36:18.657Z,46.65
2022-12-18T19:38:50.070Z,50.30
2022-12-18T19:41:20.696Z,50.05
2022-12-18T19:43:50.965Z,46.10
2022-12-18T19:46:22.213Z,48.90
2022-12-18T19:48:53.666Z,49.13
2022-12-18T19:51:25.586Z,53.20
2022-12-18T19:54:01.258Z,49.13
2022-12-18T19:56:34.382Z,48.35
2022-12-18T19:59:04.298Z,49.85
2022-12-18T20:01:33.278Z,53.15
2022-12-18T20:04:02.143Z,56.15
2022-12-18T20:06:34.629Z,49.58
2022-12-18T20:09:07.057Z,52.05
2022-12-18T20:11:41.287Z,50.17
2022-12-18T20:14:11.144Z,53.92
2022-12-18T20:16:40.181Z,54.10
2022-12-18T20:19:09.400Z,51.90
2022-12-18T20:21:38.677Z,54.88
2022-12-18T20:24:10.000Z,66.20
2022-12-18T20:26:39.196Z,52.03
2022-12-18T20:29:07.832Z,52.92
2022-12-18T20:31:36.443Z,55.90
2022-12-18T20:34:06.217Z,55.17
2022-12-18T20:36:37.763Z,56.80
2022-12-18T20:39:10.070Z,59.25
2022-12-18T20:41:41.252Z,56.70
2022-12-18T20:44:22.512Z,57.53
2022-12-18T20:46:54.362Z,55.70
2022-12-18T20:49:23.995Z,59.95
2022-12-18T20:51:53.687Z,54.78
2022-12-18T20:54:25.962Z,58.63
2022-12-18T20:56:54.206Z,57.28
2022-12-18T20:59:23.247Z,58.55
2022-12-18T21:01:52.302Z,55.70
2022-12-18T21:04:22.491Z,59.17
2022-12-18T21:07:00.567Z,60.97
2022-12-18T21:09:37.261Z,62.15
2022-12-18T21:12:27.734Z,62.67
2022-12-18T21:14:56.255Z,60.22
2022-12-18T21:17:24.637Z,63.05
2022-12-18T21:19:55.374Z,59.97
2022-12-18T21:22:23.923Z,60.33
2022-12-18T21:24:53.736Z,63.33
2022-12-18T21:27:22.050Z,63.88
2022-12-18T21:29:50.570Z,64.25
2022-12-18T21:32:21.127Z,61.90
2022-12-18T21:34:52.878Z,59.60
2022-12-18T21:37:21.371Z,63.28
2022-12-18T21:39:49.996Z,63.30
2022-12-18T21:42:37.912Z,68.32
2022-12-18T21:45:07.045Z,61.00
2022-12-18T21:47:35.819Z,66.97
2022-12-18T21:50:04.144Z,65.95
2022-12-18T21:52:32.948Z,66.40
2022-12-18T21:55:08.460Z,72.70
2022-12-18T21:57:39.850Z,65.88
2022-12-18T22:00:19.199Z,70.25
2022-12-18T22:03:01.203Z,67.32
2022-12-18T22:05:40.733Z,66.78
2022-12-18T22:08:09.236Z,72.15
2022-12-18T22:10:38.065Z,66.57
2022-12-18T22:13:09.455Z,68.18
2022-12-18T22:15:37.882Z,68.80
2022-12-18T22:18:06.265Z,72.00
2022-12-18T22:20:34.493Z,69.22
2022-12-18T22:23:05.894Z,69.15
2022-12-18T22:25:37.829Z,72.10
2022-12-18T22:28:26.958Z,69.47
2022-12-18T22:30:59.311Z,72.22
2022-12-18T22:33:28.835Z,66.82
2022-12-18T22:35:57.109Z,69.03
2022-12-18T22:38:25.395Z,68.68
2022-12-18T22:40:53.669Z,69.95
2022-12-18T22:43:23.537Z,69.15
2022-12-18T22:45:51.808Z,73.35
2022-12-18T22:48:20.216Z,69.38
2022-12-18T22:50:48.451Z,74.60
2022-12-18T22:53:18.096Z,71.60
2022-12-18T22:55:46.370Z,73.57
2022-12-18T22:58:14.777Z,80.25
2022-12-18T23:00:44.351Z,78.15
2022-12-18T23:03:12.739Z,75.40
2022-12-18T23:05:41.239Z,76.28
2022-12-18T23:08:09.601Z,71.22
2022-12-18T23:10:41.782Z,73.45
2022-12-18T23:13:10.104Z,74.13
2022-12-18T23:15:44.328Z,73.03
2022-12-18T23:18:12.621Z,74.25
2022-12-18T23:20:41.098Z,75.65
2022-12-18T23:23:09.918Z,75.07
2022-12-18T23:25:38.659Z,74.30
2022-12-18T23:28:07.494Z,75.78
2022-12-18T23:30:35.999Z,74.40
2022-12-18T23:33:05.816Z,72.60
2022-12-18T23:35:34.584Z,78.88
2022-12-18T23:38:03.304Z,79.63
2022-12-18T23:40:31.789Z,81.30
2022-12-18T23:43:01.400Z,75.97
2022-12-18T23:45:30.249Z,70.80
2022-12-18T23:47:58.530Z,78.28
2022-12-18T23:50:29.392Z,86.38
2022-12-18T23:53:04.589Z,74.68
2022-12-18T23:55:38.658Z,74.65
2022-12-18T23:58:07.155Z,78.20
